Kankakee, Illinois
Current Conditions -  °F | °C
As of 9:55 AM on Thursday 27 Nov 2014 (Local Time) from KJOT Reporting Station
Overcast Overcast  
Wind Chill: -9°   Ceiling: 1500
Heat Index: -3°   Visibility: 10mi
Dew Point: -7°   Wind: 10mph
Humidity: 77%   Direction: 300°WNW
Pressure: 30.36"   Gusts: 16mph
Location:  41.12°N, 87.86°W
Report Text: KJOT 271555Z AUTO 30009G14KT 280V340 10SM OVC015 M03/M07 A3036 RMK AO2 T10311066
Loading
Personal Weather Stations






























Interactive Weather Map New forecast layout! Learn more

10-Day Weather Forecast

Advertisements
Track Severe Weather on mobile